Time;durP1;ratioP1;P1;durP2;ratioP2;P2;SDS_P1;SDS_P2;PMS_P1;PMS_P2;Temp;Humidity;BMP_temperature;BMP_pressure;BME280_temperature;BME280_humidity;BME280_pressure;Samples;Min_cycle;Max_cycle;Signal;HPM_P1;HPM_P2
2022/04/20 00:00:53;;;;;;;2.47;2.10;;;;;;;;;;4989210;28;20204;-75
2022/04/20 00:03:18;;;;;;;2.57;2.00;;;;;;;;;;4978854;28;20180;-75
2022/04/20 00:05:43;;;;;;;4.27;2.73;;;;;;;;;;4971492;28;20187;-74
2022/04/20 00:08:08;;;;;;;3.57;2.10;;;;;;;;;;4989075;28;20168;-75
2022/04/20 00:10:33;;;;;;;4.93;2.30;;;;;;;;;;4966461;28;20185;-75
2022/04/20 00:12:59;;;;;;;3.13;2.27;;;;;;;;;;4986768;28;20184;-75
2022/04/20 00:15:24;;;;;;;2.90;2.10;;;;;;;;;;4973871;28;20188;-75
2022/04/20 00:17:49;;;;;;;3.50;2.40;;;;;;;;;;4974115;28;20183;-75
2022/04/20 00:20:15;;;;;;;3.40;1.87;;;;;;;;;;4969937;28;20232;-75
2022/04/20 00:22:40;;;;;;;2.63;2.43;;;;;;;;;;4971945;28;20183;-75
2022/04/20 00:25:05;;;;;;;2.60;2.27;;;;;;;;;;4989055;28;20207;-75
2022/04/20 00:27:37;;;;;;;2.67;2.40;;;;;;;;;;4971200;28;20232;-75
2022/04/20 00:30:03;;;;;;;3.53;2.03;;;;;;;;;;4988655;28;21980;-75
2022/04/20 00:32:29;;;;;;;2.93;2.50;;;;;;;;;;4976285;28;20184;-75
2022/04/20 00:34:55;;;;;;;2.70;2.50;;;;;;;;;;4978653;28;20176;-74
2022/04/20 00:37:20;;;;;;;2.50;2.30;;;;;;;;;;4972970;28;20299;-75
2022/04/20 00:39:45;;;;;;;2.20;2.00;;;;;;;;;;4970923;28;20407;-75
2022/04/20 00:42:11;;;;;;;2.40;2.20;;;;;;;;;;4970498;28;20208;-75
2022/04/20 00:44:36;;;;;;;2.93;2.10;;;;;;;;;;4973761;28;20211;-75
2022/04/20 00:47:02;;;;;;;2.40;2.20;;;;;;;;;;4973605;28;20187;-75
2022/04/20 00:49:28;;;;;;;5.00;2.40;;;;;;;;;;4993820;28;20180;-75
2022/04/20 00:51:56;;;;;;;3.97;2.30;;;;;;;;;;4981743;28;20186;-75
2022/04/20 00:54:21;;;;;;;3.87;2.27;;;;;;;;;;4988214;28;20211;-75
2022/04/20 00:56:46;;;;;;;3.50;2.30;;;;;;;;;;4970382;28;20176;-75
2022/04/20 00:59:13;;;;;;;2.53;2.30;;;;;;;;;;4972089;28;20195;-75
2022/04/20 01:01:38;;;;;;;3.70;2.40;;;;;;;;;;4968542;28;20187;-75
2022/04/20 01:04:04;;;;;;;2.47;2.27;;;;;;;;;;4990060;28;20227;-75
2022/04/20 01:06:31;;;;;;;2.10;1.90;;;;;;;;;;4969136;28;20246;-75
2022/04/20 01:08:57;;;;;;;2.50;2.30;;;;;;;;;;4974951;28;20184;-75
2022/04/20 01:11:22;;;;;;;3.93;2.60;;;;;;;;;;4975766;28;20246;-74
2022/04/20 01:13:48;;;;;;;2.90;2.30;;;;;;;;;;4972246;28;20241;-75
2022/04/20 01:16:13;;;;;;;3.80;2.77;;;;;;;;;;4990283;28;20192;-75
2022/04/20 01:18:44;;;;;;;3.50;2.33;;;;;;;;;;4976975;28;20207;-75
2022/04/20 01:21:10;;;;;;;3.33;2.80;;;;;;;;;;4967115;28;20236;-75
2022/04/20 01:23:36;;;;;;;4.03;3.17;;;;;;;;;;4968381;28;20231;-75
2022/04/20 01:26:04;;;;;;;3.10;2.80;;;;;;;;;;4969799;28;20238;-75
2022/04/20 01:28:29;;;;;;;3.40;3.10;;;;;;;;;;4972903;28;20177;-75
2022/04/20 01:30:54;;;;;;;3.20;2.90;;;;;;;;;;4981392;28;20210;-75
2022/04/20 01:33:20;;;;;;;3.53;3.23;;;;;;;;;;4976755;28;20172;-75
2022/04/20 01:35:47;;;;;;;5.00;2.83;;;;;;;;;;4966632;28;20261;-75
2022/04/20 01:38:12;;;;;;;3.60;2.60;;;;;;;;;;4970225;28;20194;-75
2022/04/20 01:40:38;;;;;;;4.23;2.80;;;;;;;;;;4966625;28;20188;-75
2022/04/20 01:43:03;;;;;;;4.67;3.20;;;;;;;;;;4971243;28;20175;-74
2022/04/20 01:45:28;;;;;;;4.07;2.73;;;;;;;;;;4972044;28;20302;-74
2022/04/20 01:47:53;;;;;;;3.27;2.83;;;;;;;;;;4988629;28;20182;-75
2022/04/20 01:50:18;;;;;;;4.40;3.00;;;;;;;;;;4970913;28;20183;-75
2022/04/20 01:52:47;;;;;;;4.53;3.23;;;;;;;;;;4971859;28;20333;-75
2022/04/20 01:55:12;;;;;;;5.63;3.17;;;;;;;;;;4970942;28;20192;-75
2022/04/20 01:57:37;;;;;;;3.77;3.00;;;;;;;;;;4969884;28;20183;-75
2022/04/20 02:00:03;;;;;;;3.67;3.30;;;;;;;;;;4968348;28;20191;-74
2022/04/20 02:02:35;;;;;;;7.67;3.33;;;;;;;;;;4970754;28;20181;-74
2022/04/20 02:05:00;;;;;;;5.03;3.33;;;;;;;;;;4970774;28;20231;-74
2022/04/20 02:07:25;;;;;;;3.73;3.37;;;;;;;;;;4972339;28;20177;-75
2022/04/20 02:09:51;;;;;;;3.53;3.23;;;;;;;;;;4972196;28;20175;-75
2022/04/20 02:12:16;;;;;;;3.30;2.90;;;;;;;;;;4971664;28;20184;-75
2022/04/20 02:14:41;;;;;;;3.83;3.20;;;;;;;;;;4970612;28;20271;-75
2022/04/20 02:17:06;;;;;;;3.47;3.17;;;;;;;;;;4971532;28;20262;-75
2022/04/20 02:19:31;;;;;;;3.40;3.10;;;;;;;;;;4975894;28;20231;-75
2022/04/20 02:21:57;;;;;;;4.40;3.53;;;;;;;;;;4992398;28;20214;-75
2022/04/20 02:24:22;;;;;;;3.37;3.07;;;;;;;;;;4986811;28;20221;-75
2022/04/20 02:26:47;;;;;;;5.00;3.43;;;;;;;;;;4973630;28;20188;-75
2022/04/20 02:29:12;;;;;;;3.40;3.10;;;;;;;;;;4972665;28;20180;-75
2022/04/20 02:31:37;;;;;;;3.80;3.50;;;;;;;;;;4989084;28;20181;-75
2022/04/20 02:34:03;;;;;;;4.00;3.33;;;;;;;;;;4973642;28;20190;-75
2022/04/20 02:36:28;;;;;;;4.30;3.90;;;;;;;;;;4987533;28;20290;-75
2022/04/20 02:38:53;;;;;;;3.87;3.40;;;;;;;;;;4983486;28;20183;-75
2022/04/20 02:41:18;;;;;;;4.10;3.57;;;;;;;;;;4972663;28;20197;-75
2022/04/20 02:43:44;;;;;;;5.87;3.90;;;;;;;;;;4991030;28;20237;-75
2022/04/20 02:46:09;;;;;;;4.17;3.77;;;;;;;;;;4974721;28;20216;-75
2022/04/20 02:48:34;;;;;;;7.03;3.87;;;;;;;;;;4971265;28;20187;-75
2022/04/20 02:51:00;;;;;;;4.13;3.73;;;;;;;;;;4972193;28;20213;-74
2022/04/20 02:53:25;;;;;;;6.07;3.87;;;;;;;;;;4974588;28;20183;-74
2022/04/20 02:55:50;;;;;;;6.33;4.07;;;;;;;;;;4971226;28;20266;-74
2022/04/20 02:58:16;;;;;;;5.93;3.90;;;;;;;;;;4976280;28;20218;-75
2022/04/20 03:00:43;;;;;;;4.90;3.87;;;;;;;;;;4972990;28;20182;-74
2022/04/20 03:03:08;;;;;;;4.13;3.70;;;;;;;;;;4983107;28;20197;-74
2022/04/20 03:05:33;;;;;;;3.93;3.57;;;;;;;;;;4973264;28;20202;-75
2022/04/20 03:07:58;;;;;;;5.47;4.47;;;;;;;;;;4978461;28;20183;-75
2022/04/20 03:10:24;;;;;;;4.30;3.90;;;;;;;;;;4985100;28;20189;-75
2022/04/20 03:12:49;;;;;;;5.10;4.60;;;;;;;;;;4975981;28;20175;-74
2022/04/20 03:15:15;;;;;;;5.17;4.67;;;;;;;;;;4973879;28;20206;-74
2022/04/20 03:17:40;;;;;;;5.93;3.97;;;;;;;;;;4979869;28;20267;-74
2022/04/20 03:20:06;;;;;;;4.63;3.60;;;;;;;;;;4968940;28;20246;-74
2022/04/20 03:22:32;;;;;;;4.70;4.30;;;;;;;;;;4970234;28;20179;-74
2022/04/20 03:24:57;;;;;;;4.50;4.10;;;;;;;;;;4971085;28;20211;-75
2022/04/20 03:27:22;;;;;;;5.17;4.67;;;;;;;;;;4968002;28;20193;-74
2022/04/20 03:29:47;;;;;;;4.63;4.13;;;;;;;;;;4971397;28;20245;-74
2022/04/20 03:32:13;;;;;;;5.37;4.30;;;;;;;;;;4970676;28;20188;-75
2022/04/20 03:34:38;;;;;;;5.60;4.00;;;;;;;;;;4972052;28;20175;-74
2022/04/20 03:37:07;;;;;;;4.67;4.10;;;;;;;;;;4969673;28;20198;-75
2022/04/20 03:39:33;;;;;;;4.03;3.73;;;;;;;;;;4970833;28;20182;-74
2022/04/20 03:41:58;;;;;;;5.47;4.70;;;;;;;;;;4968704;28;20194;-74
2022/04/20 03:44:23;;;;;;;6.80;4.73;;;;;;;;;;4969650;28;20245;-75
2022/04/20 03:46:48;;;;;;;4.70;4.23;;;;;;;;;;4971680;28;20207;-74
2022/04/20 03:49:14;;;;;;;4.40;3.90;;;;;;;;;;4969879;28;20178;-74
2022/04/20 03:51:40;;;;;;;4.13;3.77;;;;;;;;;;4969777;28;20267;-75
2022/04/20 03:54:05;;;;;;;6.07;4.93;;;;;;;;;;4980111;28;20194;-75
2022/04/20 03:57:03;;;;;;;4.93;4.17;;;;;;;;;;4968636;28;20191;-75
2022/04/20 03:59:16;;;;;;;6.07;4.57;;;;;;;;;;4969326;28;20237;-75
2022/04/20 04:01:41;;;;;;;5.00;4.30;;;;;;;;;;4967462;28;20187;-75
2022/04/20 04:04:06;;;;;;;4.60;4.20;;;;;;;;;;4968527;28;20254;-75
2022/04/20 04:06:31;;;;;;;6.00;4.97;;;;;;;;;;4967213;28;20180;-75
2022/04/20 04:08:56;;;;;;;5.70;4.73;;;;;;;;;;4984086;28;20182;-75
2022/04/20 04:11:22;;;;;;;5.00;4.50;;;;;;;;;;4966839;28;20240;-75
2022/04/20 04:13:47;;;;;;;4.53;4.13;;;;;;;;;;4981522;28;20181;-74
2022/04/20 04:16:12;;;;;;;5.03;4.27;;;;;;;;;;4968813;28;20199;-75
2022/04/20 04:18:37;;;;;;;4.93;4.43;;;;;;;;;;4967507;28;20182;-75
2022/04/20 04:21:02;;;;;;;5.03;4.53;;;;;;;;;;4968857;28;20231;-74
2022/04/20 04:23:27;;;;;;;5.03;4.53;;;;;;;;;;4968800;28;20208;-74
2022/04/20 04:25:53;;;;;;;4.57;4.20;;;;;;;;;;4965982;28;20239;-74
2022/04/20 04:28:19;;;;;;;4.77;4.27;;;;;;;;;;4968358;28;20180;-73
2022/04/20 04:30:44;;;;;;;4.77;4.37;;;;;;;;;;4969098;28;20213;-74
2022/04/20 04:33:09;;;;;;;9.00;8.13;;;;;;;;;;4967686;28;20184;-74
2022/04/20 04:35:34;;;;;;;5.20;4.70;;;;;;;;;;4982806;28;20198;-73
2022/04/20 04:38:00;;;;;;;6.90;4.40;;;;;;;;;;4969352;28;20215;-74
2022/04/20 04:40:25;;;;;;;5.07;4.57;;;;;;;;;;4967968;28;20182;-74
2022/04/20 04:42:50;;;;;;;3.87;3.57;;;;;;;;;;4966750;28;20270;-73
2022/04/20 04:50:43;;;;;;;4.80;4.30;;;;;;;;;;4966766;28;20188;-74
2022/04/20 04:53:08;;;;;;;4.33;3.93;;;;;;;;;;4965831;28;20183;-73
2022/04/20 04:55:33;;;;;;;4.37;3.93;;;;;;;;;;4968379;28;20181;-73
2022/04/20 04:57:58;;;;;;;5.20;3.97;;;;;;;;;;4966407;28;20220;-73
2022/04/20 05:00:24;;;;;;;4.97;4.20;;;;;;;;;;4964998;28;20191;-74
2022/04/20 05:02:49;;;;;;;4.60;4.13;;;;;;;;;;4975730;28;20188;-81
2022/04/20 05:05:14;;;;;;;4.03;3.70;;;;;;;;;;4966738;28;20292;-73
2022/04/20 05:07:40;;;;;;;4.20;3.80;;;;;;;;;;4968959;28;20307;-74
2022/04/20 05:10:05;;;;;;;5.53;5.13;;;;;;;;;;4968919;28;20202;-74
2022/04/20 05:12:33;;;;;;;4.47;3.67;;;;;;;;;;4968932;28;20172;-74
2022/04/20 05:14:58;;;;;;;14.40;12.40;;;;;;;;;;4970960;28;20184;-73
2022/04/20 05:17:23;;;;;;;7.73;6.93;;;;;;;;;;4969211;28;20188;-75
2022/04/20 05:19:48;;;;;;;6.20;4.30;;;;;;;;;;4974679;28;20237;-72
2022/04/20 05:22:14;;;;;;;4.10;3.70;;;;;;;;;;4971652;28;20191;-74
2022/04/20 05:24:39;;;;;;;5.33;3.53;;;;;;;;;;4971770;28;20226;-75
2022/04/20 05:27:04;;;;;;;6.90;4.00;;;;;;;;;;4968081;28;20208;-74
2022/04/20 05:29:29;;;;;;;4.00;3.60;;;;;;;;;;4969110;28;20184;-75
2022/04/20 05:31:56;;;;;;;4.30;3.90;;;;;;;;;;4966936;28;20268;-74
2022/04/20 05:34:23;;;;;;;4.80;3.87;;;;;;;;;;4968955;28;20269;-73
2022/04/20 05:42:17;;;;;;;6.07;3.97;;;;;;;;;;4969667;28;20197;-74
2022/04/20 05:44:42;;;;;;;4.70;4.13;;;;;;;;;;4969302;28;20209;-75
2022/04/20 05:47:07;;;;;;;4.37;4.07;;;;;;;;;;4969925;28;20191;-75
2022/04/20 05:49:32;;;;;;;4.77;4.37;;;;;;;;;;4967832;28;20184;-75
2022/04/20 05:51:58;;;;;;;3.87;3.57;;;;;;;;;;4970640;28;20186;-75
2022/04/20 05:54:23;;;;;;;3.83;3.00;;;;;;;;;;4965904;28;20187;-75
2022/04/20 05:56:48;;;;;;;4.90;3.80;;;;;;;;;;4967474;28;20174;-76
2022/04/20 05:59:14;;;;;;;4.13;3.70;;;;;;;;;;4969032;28;20194;-74
2022/04/20 06:01:39;;;;;;;6.90;3.70;;;;;;;;;;4968824;28;20190;-75
2022/04/20 06:04:04;;;;;;;4.23;3.83;;;;;;;;;;4968802;28;20211;-75
2022/04/20 06:06:29;;;;;;;5.70;4.40;;;;;;;;;;4969987;28;20169;-75
2022/04/20 06:08:54;;;;;;;5.10;4.37;;;;;;;;;;4967503;28;20179;-75
2022/04/20 06:11:20;;;;;;;5.03;4.33;;;;;;;;;;4970830;28;20187;-75
2022/04/20 06:13:45;;;;;;;4.70;4.30;;;;;;;;;;4973388;28;20180;-75
2022/04/20 06:16:10;;;;;;;7.40;6.00;;;;;;;;;;4973248;28;20234;-75
2022/04/20 06:18:36;;;;;;;5.33;4.70;;;;;;;;;;4985091;28;20212;-75
2022/04/20 06:21:02;;;;;;;5.43;4.50;;;;;;;;;;4969368;28;20268;-75
2022/04/20 06:23:27;;;;;;;4.50;4.10;;;;;;;;;;4973358;28;20182;-74
2022/04/20 06:25:53;;;;;;;4.07;3.73;;;;;;;;;;4986130;28;20189;-75
2022/04/20 06:28:18;;;;;;;6.47;4.43;;;;;;;;;;4970013;28;20264;-74
2022/04/20 06:30:44;;;;;;;6.37;5.27;;;;;;;;;;4970024;28;20187;-75
2022/04/20 06:33:09;;;;;;;6.60;6.00;;;;;;;;;;4972513;28;20181;-75
2022/04/20 06:35:34;;;;;;;7.00;4.57;;;;;;;;;;4970619;28;20266;-74
2022/04/20 06:37:59;;;;;;;4.60;4.20;;;;;;;;;;4971376;28;20186;-75
2022/04/20 06:40:24;;;;;;;5.10;4.70;;;;;;;;;;4969736;28;20186;-75
2022/04/20 06:42:50;;;;;;;5.23;4.00;;;;;;;;;;4973835;28;20182;-75
2022/04/20 06:45:15;;;;;;;4.53;3.80;;;;;;;;;;4971375;28;20212;-75
2022/04/20 06:47:40;;;;;;;7.63;4.53;;;;;;;;;;4971925;28;20570;-75
2022/04/20 06:50:06;;;;;;;4.47;4.13;;;;;;;;;;4973027;28;20187;-75
2022/04/20 07:00:44;;;;;;;4.50;3.53;;;;;;;;;;4967440;28;20198;-75
2022/04/20 07:03:09;;;;;;;4.20;3.80;;;;;;;;;;4969313;28;20185;-75
2022/04/20 07:05:35;;;;;;;4.70;4.20;;;;;;;;;;4971526;28;20222;-75
2022/04/20 07:08:00;;;;;;;2.43;2.23;;;;;;;;;;4972889;28;20179;-75
2022/04/20 07:10:26;;;;;;;8.00;3.40;;;;;;;;;;4967753;28;20188;-74
2022/04/20 07:12:51;;;;;;;4.67;3.47;;;;;;;;;;4972664;28;20310;-75
2022/04/20 07:15:17;;;;;;;5.00;2.70;;;;;;;;;;4971858;28;20221;-75
2022/04/20 07:17:42;;;;;;;4.07;3.60;;;;;;;;;;4979410;28;20273;-75
2022/04/20 07:20:07;;;;;;;6.30;3.53;;;;;;;;;;4978496;28;20304;-75
2022/04/20 07:22:33;;;;;;;5.73;3.77;;;;;;;;;;4988461;28;20224;-75
2022/04/20 07:24:59;;;;;;;4.67;4.27;;;;;;;;;;4973945;28;20212;-75
2022/04/20 07:27:24;;;;;;;3.93;3.63;;;;;;;;;;4972966;28;20245;-74
2022/04/20 07:29:49;;;;;;;4.20;3.80;;;;;;;;;;4989140;28;20270;-75
2022/04/20 07:32:15;;;;;;;8.10;3.70;;;;;;;;;;4974363;28;20186;-75
2022/04/20 07:34:40;;;;;;;4.40;3.23;;;;;;;;;;4976518;28;20233;-75
2022/04/20 07:37:06;;;;;;;4.30;3.40;;;;;;;;;;4957441;28;20256;-75
2022/04/20 07:39:31;;;;;;;4.23;3.83;;;;;;;;;;4972779;28;20191;-75
2022/04/20 07:41:56;;;;;;;3.97;3.30;;;;;;;;;;4973499;28;20214;-75
2022/04/20 07:44:22;;;;;;;4.00;3.57;;;;;;;;;;4972231;28;20273;-75
2022/04/20 07:46:47;;;;;;;3.77;3.40;;;;;;;;;;4974185;28;20194;-74
2022/04/20 07:51:56;;;;;;;4.87;3.33;;;;;;;;;;4991239;28;20214;-75
2022/04/20 07:54:22;;;;;;;4.97;3.70;;;;;;;;;;4974839;28;20190;-75
2022/04/20 07:56:47;;;;;;;4.87;3.60;;;;;;;;;;4972342;28;20409;-74
2022/04/20 07:59:12;;;;;;;4.07;3.77;;;;;;;;;;4988082;28;20195;-75
2022/04/20 08:01:37;;;;;;;4.23;3.83;;;;;;;;;;4972351;28;20182;-76
2022/04/20 08:04:03;;;;;;;3.90;3.50;;;;;;;;;;4973653;28;20211;-75
2022/04/20 08:06:30;;;;;;;4.00;3.67;;;;;;;;;;4982541;28;20431;-75
2022/04/20 08:08:56;;;;;;;3.93;3.53;;;;;;;;;;4972026;28;20176;-76
2022/04/20 08:11:21;;;;;;;4.90;3.77;;;;;;;;;;4980774;28;20186;-75
2022/04/20 08:16:30;;;;;;;4.63;4.00;;;;;;;;;;4989535;28;20241;-75
2022/04/20 08:18:55;;;;;;;4.00;3.43;;;;;;;;;;4993149;28;20206;-75
2022/04/20 08:21:20;;;;;;;4.20;3.90;;;;;;;;;;4987216;28;20250;-75
2022/04/20 08:23:46;;;;;;;4.10;3.40;;;;;;;;;;4972517;28;20187;-75
2022/04/20 08:26:11;;;;;;;7.23;5.50;;;;;;;;;;4973422;28;20227;-75
2022/04/20 08:28:36;;;;;;;5.20;3.53;;;;;;;;;;4971642;28;20404;-76
2022/04/20 08:31:01;;;;;;;3.33;3.03;;;;;;;;;;4973491;28;20176;-75
2022/04/20 08:33:26;;;;;;;3.60;3.30;;;;;;;;;;4990631;28;20230;-75
2022/04/20 08:35:52;;;;;;;3.57;2.80;;;;;;;;;;4976203;28;20176;-75
2022/04/20 08:38:17;;;;;;;4.53;3.80;;;;;;;;;;4972258;28;20223;-75
2022/04/20 08:40:42;;;;;;;5.93;5.43;;;;;;;;;;4977779;28;20181;-75
2022/04/20 08:43:10;;;;;;;4.43;3.23;;;;;;;;;;4972732;28;20194;-75
2022/04/20 08:45:39;;;;;;;4.73;3.33;;;;;;;;;;4967354;28;20211;-75
2022/04/20 08:48:05;;;;;;;4.13;3.73;;;;;;;;;;4990659;28;20187;-75
2022/04/20 08:50:30;;;;;;;4.17;3.60;;;;;;;;;;4972768;28;20176;-74
2022/04/20 08:52:55;;;;;;;3.67;3.37;;;;;;;;;;4974563;28;20184;-75
2022/04/20 08:55:20;;;;;;;4.83;4.20;;;;;;;;;;4972505;28;20184;-76
2022/04/20 08:57:47;;;;;;;4.30;3.30;;;;;;;;;;4991095;28;20246;-75
2022/04/20 09:00:13;;;;;;;5.50;3.43;;;;;;;;;;4970001;28;20184;-75
2022/04/20 09:02:39;;;;;;;3.87;3.13;;;;;;;;;;4974048;28;20192;-75
2022/04/20 09:05:05;;;;;;;3.53;2.93;;;;;;;;;;4973080;28;20204;-76
2022/04/20 09:07:34;;;;;;;3.67;3.37;;;;;;;;;;4973717;28;20172;-75
2022/04/20 09:10:00;;;;;;;3.67;3.37;;;;;;;;;;4973491;28;20176;-75
2022/04/20 09:12:26;;;;;;;3.20;2.90;;;;;;;;;;4990013;28;20174;-74
2022/04/20 09:14:52;;;;;;;4.43;4.03;;;;;;;;;;4990901;28;20184;-75
2022/04/20 09:17:18;;;;;;;4.73;3.53;;;;;;;;;;4978108;28;20188;-75
2022/04/20 09:19:48;;;;;;;5.77;2.43;;;;;;;;;;4975792;28;20240;-75
2022/04/20 09:22:32;;;;;;;3.97;3.43;;;;;;;;;;4987395;28;20181;-75
2022/04/20 09:25:11;;;;;;;3.37;2.80;;;;;;;;;;4990858;28;20197;-75
2022/04/20 09:27:43;;;;;;;4.10;3.33;;;;;;;;;;4973504;28;20169;-75
2022/04/20 09:30:08;;;;;;;3.70;3.40;;;;;;;;;;4973256;28;20180;-75
2022/04/20 09:32:41;;;;;;;3.57;2.80;;;;;;;;;;4973417;28;20172;-76
2022/04/20 09:35:07;;;;;;;6.10;3.27;;;;;;;;;;4987667;28;20211;-76
2022/04/20 09:37:33;;;;;;;5.33;2.93;;;;;;;;;;4981287;28;20197;-75
2022/04/20 09:40:00;;;;;;;3.27;2.97;;;;;;;;;;4973651;28;20185;-75
2022/04/20 09:42:25;;;;;;;2.97;2.67;;;;;;;;;;4972654;28;20189;-75
2022/04/20 09:44:59;;;;;;;3.57;3.27;;;;;;;;;;4997264;28;20207;-75
2022/04/20 09:50:10;;;;;;;3.93;2.57;;;;;;;;;;4991471;28;20192;-75
2022/04/20 09:52:49;;;;;;;7.30;3.47;;;;;;;;;;4981281;28;20262;-75
2022/04/20 09:55:18;;;;;;;3.27;2.97;;;;;;;;;;4975690;28;20185;-75
2022/04/20 09:57:44;;;;;;;3.23;2.87;;;;;;;;;;4983762;28;20270;-75
2022/04/20 10:00:10;;;;;;;2.30;2.10;;;;;;;;;;4996434;28;20277;-75
2022/04/20 10:02:43;;;;;;;2.57;2.37;;;;;;;;;;4993934;28;20175;-75
2022/04/20 10:05:08;;;;;;;4.37;3.30;;;;;;;;;;4973602;28;20210;-74
2022/04/20 10:07:34;;;;;;;5.50;3.10;;;;;;;;;;4973667;28;20175;-75
2022/04/20 10:09:59;;;;;;;19.70;4.30;;;;;;;;;;4984619;28;20202;-75
2022/04/20 10:12:25;;;;;;;4.03;3.37;;;;;;;;;;4978056;28;20221;-75
2022/04/20 10:17:37;;;;;;;8.63;2.90;;;;;;;;;;4994761;28;20221;-75
2022/04/20 10:20:04;;;;;;;6.03;3.13;;;;;;;;;;4995314;28;20230;-75
2022/04/20 10:22:30;;;;;;;3.87;3.47;;;;;;;;;;4980458;28;20183;-75
2022/04/20 10:24:56;;;;;;;4.50;3.13;;;;;;;;;;4975742;28;20202;-75
2022/04/20 10:27:29;;;;;;;3.97;2.97;;;;;;;;;;4985090;28;20178;-75
2022/04/20 10:29:59;;;;;;;3.73;2.27;;;;;;;;;;4993430;28;20208;-74
2022/04/20 10:32:25;;;;;;;4.53;3.60;;;;;;;;;;4987433;28;20180;-75
2022/04/20 10:34:53;;;;;;;3.57;3.27;;;;;;;;;;4975784;28;20217;-75
2022/04/20 10:37:25;;;;;;;5.57;4.03;;;;;;;;;;4992018;28;20171;-75
2022/04/20 10:39:52;;;;;;;3.67;3.37;;;;;;;;;;4991355;28;20224;-75
2022/04/20 10:42:19;;;;;;;2.57;2.37;;;;;;;;;;4993669;28;20187;-75
2022/04/20 10:45:03;;;;;;;8.57;3.63;;;;;;;;;;4980889;28;20238;-75
2022/04/20 10:47:30;;;;;;;7.13;5.40;;;;;;;;;;4993039;28;20221;-75
2022/04/20 10:50:14;;;;;;;3.87;3.20;;;;;;;;;;4992326;28;20197;-76
2022/04/20 10:52:40;;;;;;;4.97;4.47;;;;;;;;;;4987772;28;20520;-75
2022/04/20 10:55:06;;;;;;;7.17;4.37;;;;;;;;;;4977892;28;20222;-76
2022/04/20 10:57:38;;;;;;;6.93;3.93;;;;;;;;;;4973833;28;20274;-75
2022/04/20 11:00:22;;;;;;;5.50;3.50;;;;;;;;;;4991992;28;20187;-75
2022/04/20 11:02:49;;;;;;;4.80;3.40;;;;;;;;;;4979858;28;20215;-75
2022/04/20 11:05:14;;;;;;;4.30;3.60;;;;;;;;;;4975139;28;20212;-75
2022/04/20 11:07:59;;;;;;;4.27;3.97;;;;;;;;;;4992886;28;20182;-75
2022/04/20 11:10:25;;;;;;;4.23;3.83;;;;;;;;;;4979718;28;20301;-75
2022/04/20 11:18:44;;;;;;;4.20;3.80;;;;;;;;;;4993523;28;20221;-76
2022/04/20 11:21:10;;;;;;;7.63;4.80;;;;;;;;;;4974985;28;20220;-75
2022/04/20 11:23:55;;;;;;;4.97;3.27;;;;;;;;;;4992654;28;20180;-75
2022/04/20 11:26:21;;;;;;;3.80;3.50;;;;;;;;;;4989418;28;20202;-75
2022/04/20 11:28:47;;;;;;;3.90;3.47;;;;;;;;;;4975176;28;20191;-75
2022/04/20 11:31:13;;;;;;;4.37;3.93;;;;;;;;;;4992365;28;20239;-75
2022/04/20 11:33:38;;;;;;;4.20;3.90;;;;;;;;;;4975111;28;20177;-75
2022/04/20 11:36:04;;;;;;;4.27;3.57;;;;;;;;;;4974690;28;20176;-75
2022/04/20 11:38:35;;;;;;;5.80;3.03;;;;;;;;;;4981091;28;20255;-76
2022/04/20 11:41:01;;;;;;;4.20;3.80;;;;;;;;;;4975047;28;20236;-75
2022/04/20 11:43:26;;;;;;;5.37;3.73;;;;;;;;;;4975199;28;20239;-75
2022/04/20 11:45:53;;;;;;;4.43;4.03;;;;;;;;;;4976823;28;20208;-75
2022/04/20 11:48:20;;;;;;;6.00;4.10;;;;;;;;;;4975324;28;20196;-75
2022/04/20 11:50:53;;;;;;;3.90;3.60;;;;;;;;;;4990992;28;20180;-75
2022/04/20 11:53:19;;;;;;;4.80;4.40;;;;;;;;;;4997868;28;20204;-79
2022/04/20 11:55:47;;;;;;;13.53;4.77;;;;;;;;;;4980138;28;20211;-79
2022/04/20 11:58:13;;;;;;;4.23;3.50;;;;;;;;;;4974424;28;20191;-78
2022/04/20 12:00:38;;;;;;;4.23;3.83;;;;;;;;;;4982823;28;20186;-78
2022/04/20 12:03:03;;;;;;;4.97;4.20;;;;;;;;;;4971709;28;20180;-78
2022/04/20 12:05:30;;;;;;;5.40;3.43;;;;;;;;;;4988591;28;20247;-78
2022/04/20 12:07:55;;;;;;;3.83;3.50;;;;;;;;;;4977557;28;20246;-78
2022/04/20 12:10:20;;;;;;;3.57;3.27;;;;;;;;;;4971362;28;20653;-78
2022/04/20 12:12:45;;;;;;;2.67;2.47;;;;;;;;;;4973811;28;20178;-78
2022/04/20 12:15:11;;;;;;;4.13;3.50;;;;;;;;;;4971550;28;20188;-78
2022/04/20 12:17:37;;;;;;;2.10;2.00;;;;;;;;;;4981852;28;20219;-78
2022/04/20 12:20:03;;;;;;;6.10;3.20;;;;;;;;;;4970474;28;20260;-78
2022/04/20 12:22:28;;;;;;;3.33;3.03;;;;;;;;;;4969700;28;20302;-78
2022/04/20 12:25:04;;;;;;;3.93;3.53;;;;;;;;;;4978057;28;20297;-78
2022/04/20 12:27:29;;;;;;;3.70;3.40;;;;;;;;;;4968928;28;20182;-78
2022/04/20 12:29:56;;;;;;;3.30;3.00;;;;;;;;;;4964570;28;20178;-78
2022/04/20 12:32:32;;;;;;;4.30;3.43;;;;;;;;;;4963860;28;20179;-78
2022/04/20 12:35:01;;;;;;;3.50;2.90;;;;;;;;;;4970756;28;20197;-78
2022/04/20 12:37:29;;;;;;;3.43;3.13;;;;;;;;;;4969505;28;20187;-78
2022/04/20 12:39:55;;;;;;;3.57;3.20;;;;;;;;;;4970363;28;20261;-78
2022/04/20 12:42:21;;;;;;;10.97;4.33;;;;;;;;;;4968704;28;20194;-78
2022/04/20 12:44:59;;;;;;;6.30;3.17;;;;;;;;;;4971210;28;20261;-78
2022/04/20 12:47:24;;;;;;;5.17;3.77;;;;;;;;;;4969002;28;20429;-78
2022/04/20 12:50:04;;;;;;;5.27;4.37;;;;;;;;;;4967657;28;20183;-78
2022/04/20 12:52:30;;;;;;;3.40;3.10;;;;;;;;;;4970042;28;20190;-78
2022/04/20 12:55:05;;;;;;;3.97;3.57;;;;;;;;;;4970856;28;20175;-78
2022/04/20 13:03:10;;;;;;;4.27;3.00;;;;;;;;;;4969289;28;20275;-78
2022/04/20 13:05:37;;;;;;;3.83;3.53;;;;;;;;;;4969030;28;20223;-78
2022/04/20 13:08:03;;;;;;;3.30;2.90;;;;;;;;;;4971266;28;20181;-77
2022/04/20 13:10:34;;;;;;;4.30;3.10;;;;;;;;;;4968643;28;20202;-79
2022/04/20 13:12:59;;;;;;;3.80;3.50;;;;;;;;;;4970208;28;20206;-78
2022/04/20 13:15:25;;;;;;;4.00;3.30;;;;;;;;;;4969883;28;20289;-78
2022/04/20 13:17:51;;;;;;;4.17;3.73;;;;;;;;;;4972503;28;20198;-78
2022/04/20 13:20:17;;;;;;;4.30;2.90;;;;;;;;;;4966505;28;20232;-78
2022/04/20 13:22:42;;;;;;;4.63;3.10;;;;;;;;;;4970772;28;20190;-78
2022/04/20 13:27:54;;;;;;;4.10;3.40;;;;;;;;;;4975255;28;20236;-78
2022/04/20 13:30:36;;;;;;;4.80;3.07;;;;;;;;;;4972294;28;20214;-78
2022/04/20 13:33:09;;;;;;;4.20;3.30;;;;;;;;;;4967960;28;20187;-78
2022/04/20 13:35:34;;;;;;;4.00;3.40;;;;;;;;;;4973797;28;20180;-78
2022/04/20 13:38:00;;;;;;;3.40;3.10;;;;;;;;;;4972724;28;20194;-78
2022/04/20 13:40:25;;;;;;;3.87;3.40;;;;;;;;;;4972148;28;20207;-78
2022/04/20 13:42:51;;;;;;;4.43;2.90;;;;;;;;;;4973706;28;20208;-78
2022/04/20 13:45:16;;;;;;;3.33;3.03;;;;;;;;;;4973118;28;20242;-78
2022/04/20 13:47:41;;;;;;;3.97;3.67;;;;;;;;;;4973231;28;20231;-78
2022/04/20 13:50:08;;;;;;;4.97;3.80;;;;;;;;;;4972634;28;20215;-78
2022/04/20 13:52:33;;;;;;;3.47;3.20;;;;;;;;;;4975016;28;20209;-78
2022/04/20 13:54:58;;;;;;;3.73;3.37;;;;;;;;;;4972397;28;20189;-78
2022/04/20 13:57:24;;;;;;;4.77;3.60;;;;;;;;;;4973313;28;20207;-78
2022/04/20 13:59:50;;;;;;;3.57;3.10;;;;;;;;;;4973760;28;20211;-78
2022/04/20 14:02:15;;;;;;;4.70;3.43;;;;;;;;;;4971817;28;20188;-78
2022/04/20 14:04:41;;;;;;;3.87;3.30;;;;;;;;;;4974203;28;20202;-78
2022/04/20 14:07:06;;;;;;;4.20;3.60;;;;;;;;;;4971375;28;20193;-78
2022/04/20 14:09:31;;;;;;;4.00;3.70;;;;;;;;;;4987009;28;20181;-78
2022/04/20 14:12:00;;;;;;;4.27;3.53;;;;;;;;;;4972179;28;20187;-77
2022/04/20 14:14:25;;;;;;;5.33;3.93;;;;;;;;;;4970833;28;20192;-78
2022/04/20 14:16:50;;;;;;;4.10;3.70;;;;;;;;;;4973321;28;20185;-78
2022/04/20 14:19:15;;;;;;;9.67;3.53;;;;;;;;;;4970846;28;20208;-78
2022/04/20 14:21:41;;;;;;;4.63;3.70;;;;;;;;;;4970353;28;20296;-78
2022/04/20 14:24:06;;;;;;;3.77;3.47;;;;;;;;;;4977294;28;20221;-78
2022/04/20 14:32:12;;;;;;;4.50;4.10;;;;;;;;;;4972989;28;20194;-78
2022/04/20 14:34:38;;;;;;;4.70;4.00;;;;;;;;;;4970130;28;20177;-78
2022/04/20 14:37:04;;;;;;;4.20;3.10;;;;;;;;;;4967427;28;20231;-78
2022/04/20 14:39:29;;;;;;;4.43;4.03;;;;;;;;;;4970673;28;20208;-77
2022/04/20 14:41:55;;;;;;;3.97;3.67;;;;;;;;;;4972329;28;20220;-77
2022/04/20 14:44:20;;;;;;;3.97;3.23;;;;;;;;;;4984894;28;20205;-77
2022/04/20 14:46:46;;;;;;;4.60;3.97;;;;;;;;;;4971452;28;20185;-78
2022/04/20 14:49:11;;;;;;;4.33;3.93;;;;;;;;;;4970328;28;20180;-78
2022/04/20 14:51:36;;;;;;;3.70;3.40;;;;;;;;;;4972119;28;20203;-78
2022/04/20 14:54:02;;;;;;;3.60;3.30;;;;;;;;;;4976248;28;20173;-78
2022/04/20 14:56:27;;;;;;;3.30;2.77;;;;;;;;;;4970510;28;20180;-77
2022/04/20 14:58:53;;;;;;;4.57;3.10;;;;;;;;;;4970483;28;20186;-77
2022/04/20 15:01:19;;;;;;;4.60;3.07;;;;;;;;;;4970690;28;20232;-77
2022/04/20 15:03:44;;;;;;;5.97;3.23;;;;;;;;;;4970114;28;20185;-77
2022/04/20 15:06:09;;;;;;;2.97;2.77;;;;;;;;;;4971641;28;20217;-77
2022/04/20 15:08:35;;;;;;;5.70;3.53;;;;;;;;;;4971157;28;20178;-77
2022/04/20 15:11:00;;;;;;;3.10;2.87;;;;;;;;;;4984211;28;20274;-77
2022/04/20 15:13:26;;;;;;;7.87;3.30;;;;;;;;;;4972789;28;20176;-78
2022/04/20 15:15:51;;;;;;;6.27;2.97;;;;;;;;;;4965886;28;20186;-77
2022/04/20 15:18:16;;;;;;;5.37;3.10;;;;;;;;;;4977884;28;20277;-77
2022/04/20 15:20:41;;;;;;;3.80;2.73;;;;;;;;;;4970276;28;20227;-77
2022/04/20 15:23:07;;;;;;;3.60;3.17;;;;;;;;;;4969858;28;20221;-77
2022/04/20 15:25:33;;;;;;;3.33;2.93;;;;;;;;;;4969244;28;20246;-77
2022/04/20 15:27:59;;;;;;;4.30;2.90;;;;;;;;;;4969934;28;20178;-77